LOWL/LNZ METAR and TAF weather

Enter ICAO airport designator
Station Type Date Time Source
LOWL METAR 2021/04/13 22:50 UTC NOAA

LOWL 132250Z AUTO 28008KT 9999 FEW060 BKN070 02/01 Q1027


Station Type Date Time Source
LOWL Decoded METAR 2021/04/13 22:50 UTC NOAA

Linz / Hoersching-Flughafen, Austria (LOWL) 48-14N 014-11E 313M
Apr 13, 2021 - 06:50 PM EDT / 2021.04.13 2250 UTC
Wind: from the W (280 degrees) at 9 MPH (8 KT):0
Visibility: greater than 7 mile(s):0
Sky conditions: mostly cloudy
Temperature: 35 F (2 C)
Windchill: 28 F (-2 C):1
Dew Point: 33 F (1 C)
Relative Humidity: 93%
Pressure (altimeter): 30.33 in. Hg (1027 hPa)
ob: LOWL 132250Z AUTO 28008KT 9999 FEW060 BKN070 02/01 Q1027
cycle: 23

Station Type Date Time Source
LOWL TAF 2021/04/13 18:21 UTC NOAA

TAF LOWL 131715Z 1318/1418 27005KT 9999 BKN050 TX07/1414Z TN01/1405Z PROB40
TEMPO 1410/1417 30015KT 4500 SHRASN SCT012 BKN020

Example: see airport list